createdAt,value
2019-01-14T00:00:12.930Z,99.90
2019-01-14T00:02:18.876Z,99.90
2019-01-14T00:04:27.553Z,99.90
2019-01-14T00:08:45.464Z,99.90
2019-01-14T00:10:51.464Z,99.90
2019-01-14T00:12:56.987Z,99.90
2019-01-14T00:15:02.524Z,99.90
2019-01-14T00:17:16.150Z,99.90
2019-01-14T00:19:21.842Z,99.90
2019-01-14T00:21:27.555Z,99.90
2019-01-14T00:23:33.149Z,99.90
2019-01-14T00:25:38.637Z,99.90
2019-01-14T00:27:44.170Z,99.90
2019-01-14T00:29:49.722Z,99.90
2019-01-14T00:31:55.252Z,99.90
2019-01-14T00:34:00.907Z,99.90
2019-01-14T00:36:08.457Z,99.90
2019-01-14T00:38:13.965Z,99.90
2019-01-14T00:40:19.440Z,99.90
2019-01-14T00:42:31.169Z,99.90
2019-01-14T00:44:36.713Z,99.90
2019-01-14T00:46:42.632Z,99.90
2019-01-14T00:48:48.774Z,99.90
2019-01-14T00:50:55.055Z,99.90
2019-01-14T00:53:03.059Z,99.90
2019-01-14T00:55:09.531Z,99.90
2019-01-14T00:57:15.567Z,99.90
2019-01-14T00:59:21.530Z,99.90
2019-01-14T01:01:30.121Z,99.90
2019-01-14T01:03:36.782Z,99.90
2019-01-14T01:05:42.411Z,99.90
2019-01-14T01:07:48.198Z,99.90
2019-01-14T01:09:53.765Z,99.90
2019-01-14T01:12:02.762Z,99.90
2019-01-14T01:14:08.638Z,99.90
2019-01-14T01:16:14.807Z,99.90
2019-01-14T01:18:22.778Z,99.90
2019-01-14T01:20:29.793Z,99.90
2019-01-14T01:22:35.897Z,99.90
2019-01-14T01:24:43.358Z,99.90
2019-01-14T01:26:52.462Z,99.90
2019-01-14T01:28:58.107Z,99.90
2019-01-14T01:31:04.066Z,99.90
2019-01-14T01:33:09.759Z,99.90
2019-01-14T01:35:19.183Z,99.90
2019-01-14T01:37:25.070Z,99.90
2019-01-14T01:39:32.275Z,99.90
2019-01-14T01:41:38.327Z,99.90
2019-01-14T01:43:44.210Z,99.90
2019-01-14T01:45:52.893Z,99.90
2019-01-14T01:47:58.986Z,99.90
2019-01-14T01:50:06.358Z,99.90
2019-01-14T01:52:11.926Z,99.90
2019-01-14T01:54:18.150Z,99.90
2019-01-14T01:56:23.738Z,99.90
2019-01-14T01:58:30.429Z,99.90
2019-01-14T02:00:36.672Z,99.90
2019-01-14T02:02:48.134Z,99.90
2019-01-14T02:04:54.079Z,99.90
2019-01-14T02:06:59.821Z,99.90
2019-01-14T02:09:07.482Z,99.90
2019-01-14T02:11:17.171Z,99.90
2019-01-14T02:13:22.894Z,99.90
2019-01-14T02:15:28.469Z,99.90
2019-01-14T02:17:34.687Z,99.90
2019-01-14T02:19:40.522Z,99.90
2019-01-14T02:21:47.223Z,99.90
2019-01-14T02:26:27.284Z,99.90
2019-01-14T02:28:33.295Z,99.90
2019-01-14T02:30:39.184Z,99.90
2019-01-14T02:34:56.079Z,99.90
2019-01-14T02:37:02.036Z,99.90
2019-01-14T02:39:08.537Z,99.90
2019-01-14T02:41:14.207Z,99.90
2019-01-14T02:43:20.338Z,99.90
2019-01-14T02:45:26.068Z,99.90
2019-01-14T02:47:32.046Z,99.90
2019-01-14T02:49:38.023Z,99.90
2019-01-14T02:51:44.051Z,99.90
2019-01-14T02:53:49.631Z,99.90
2019-01-14T02:55:55.211Z,99.90
2019-01-14T02:58:02.179Z,99.90
2019-01-14T03:00:20.422Z,99.90
2019-01-14T03:02:26.796Z,99.90
2019-01-14T03:04:33.251Z,99.90
2019-01-14T03:06:39.158Z,99.90
2019-01-14T03:08:50.708Z,99.90
2019-01-14T03:10:56.792Z,99.90
2019-01-14T03:13:05.654Z,99.90
2019-01-14T03:15:15.367Z,99.90
2019-01-14T03:19:33.050Z,99.90
2019-01-14T03:21:40.495Z,99.90
2019-01-14T03:23:46.318Z,99.90
2019-01-14T03:25:58.048Z,99.90
2019-01-14T03:28:05.498Z,99.90
2019-01-14T03:30:13.689Z,99.90
2019-01-14T03:32:19.230Z,99.90
2019-01-14T03:34:44.208Z,99.90
2019-01-14T03:36:51.799Z,99.90
2019-01-14T03:38:58.207Z,99.90
2019-01-14T03:41:13.510Z,99.90
2019-01-14T03:43:19.322Z,99.90
2019-01-14T03:45:25.372Z,99.90
2019-01-14T03:47:32.076Z,99.90
2019-01-14T03:49:38.294Z,99.90
2019-01-14T03:51:43.944Z,99.90
2019-01-14T03:53:51.052Z,99.90
2019-01-14T03:55:56.945Z,99.90
2019-01-14T03:58:03.643Z,99.90
2019-01-14T04:00:13.827Z,99.90
2019-01-14T04:02:19.675Z,99.90
2019-01-14T04:04:25.285Z,99.90
2019-01-14T04:06:31.220Z,99.90
2019-01-14T04:08:36.738Z,99.90
2019-01-14T04:10:42.205Z,99.90
2019-01-14T04:12:49.977Z,99.90
2019-01-14T04:14:55.488Z,99.90
2019-01-14T04:17:01.125Z,99.90
2019-01-14T04:19:08.409Z,99.90
2019-01-14T04:21:14.334Z,99.90
2019-01-14T04:23:21.039Z,99.90
2019-01-14T04:25:28.562Z,99.90
2019-01-14T04:27:34.530Z,99.90
2019-01-14T04:29:40.011Z,99.90
2019-01-14T04:31:45.732Z,99.90
2019-01-14T04:33:51.356Z,99.90
2019-01-14T04:35:56.842Z,99.90
2019-01-14T04:38:02.534Z,99.90
2019-01-14T04:40:08.940Z,99.90
2019-01-14T04:42:15.032Z,99.90
2019-01-14T04:44:26.643Z,99.90
2019-01-14T04:46:32.291Z,99.90
2019-01-14T04:48:37.884Z,99.90
2019-01-14T04:50:43.832Z,99.90
2019-01-14T04:52:49.392Z,99.90
2019-01-14T04:54:55.125Z,99.90
2019-01-14T04:57:00.854Z,99.90
2019-01-14T04:59:06.823Z,99.90
2019-01-14T05:01:12.379Z,99.90
2019-01-14T05:03:21.882Z,99.90
2019-01-14T05:05:27.498Z,99.90
2019-01-14T05:07:34.049Z,99.90
2019-01-14T05:09:40.201Z,99.90
2019-01-14T05:11:46.693Z,99.90
2019-01-14T05:13:53.173Z,99.90
2019-01-14T05:15:59.643Z,99.90
2019-01-14T05:18:05.226Z,99.90
2019-01-14T05:20:14.418Z,99.90
2019-01-14T05:22:20.150Z,99.90
2019-01-14T05:24:25.807Z,99.90
2019-01-14T05:26:31.773Z,99.90
2019-01-14T05:28:38.061Z,99.90
2019-01-14T05:30:44.040Z,99.90
2019-01-14T05:32:50.274Z,99.90
2019-01-14T05:34:56.768Z,99.90
2019-01-14T05:37:02.482Z,99.90
2019-01-14T05:39:09.407Z,99.90
2019-01-14T05:41:15.151Z,99.90
2019-01-14T05:43:20.954Z,99.90
2019-01-14T05:45:26.432Z,99.90
2019-01-14T05:47:34.918Z,99.90
2019-01-14T05:49:41.028Z,99.90
2019-01-14T05:51:46.605Z,99.90
2019-01-14T05:53:52.291Z,99.90
2019-01-14T05:55:58.216Z,99.90
2019-01-14T05:58:03.777Z,99.90
2019-01-14T06:00:24.240Z,99.90
2019-01-14T06:02:30.221Z,99.90
2019-01-14T06:04:35.961Z,99.90
2019-01-14T06:06:41.548Z,99.90
2019-01-14T06:08:47.396Z,99.90
2019-01-14T06:10:53.065Z,99.90
2019-01-14T06:13:02.120Z,99.90
2019-01-14T06:15:07.860Z,99.90
2019-01-14T06:17:13.619Z,99.90
2019-01-14T06:19:19.193Z,99.90
2019-01-14T06:21:24.965Z,99.90
2019-01-14T06:23:30.487Z,99.90
2019-01-14T06:25:36.833Z,99.90
2019-01-14T06:27:43.459Z,99.90
2019-01-14T06:29:49.329Z,99.90
2019-01-14T06:31:55.093Z,99.90
2019-01-14T06:34:00.629Z,99.90
2019-01-14T06:36:06.492Z,99.90
2019-01-14T06:38:12.510Z,99.90
2019-01-14T06:40:19.274Z,99.90
2019-01-14T06:42:24.849Z,99.90
2019-01-14T06:44:30.418Z,99.90
2019-01-14T06:46:36.487Z,99.90
2019-01-14T06:48:42.023Z,99.90
2019-01-14T06:50:51.955Z,99.90
2019-01-14T06:52:58.643Z,99.90
2019-01-14T06:55:05.561Z,99.90
2019-01-14T06:57:14.009Z,99.90
2019-01-14T06:59:20.313Z,99.90
2019-01-14T07:01:26.052Z,99.90
2019-01-14T07:03:31.810Z,99.90
2019-01-14T07:05:37.621Z,99.90
2019-01-14T07:07:43.103Z,99.90
2019-01-14T07:09:48.886Z,99.90
2019-01-14T07:11:54.522Z,99.90
2019-01-14T07:14:00.611Z,99.90
2019-01-14T07:16:06.223Z,99.90
2019-01-14T07:18:11.749Z,99.90
2019-01-14T07:20:22.717Z,99.90
2019-01-14T07:22:30.815Z,99.90
2019-01-14T07:24:36.788Z,99.90
2019-01-14T07:26:42.286Z,99.90
2019-01-14T07:28:47.778Z,99.90
2019-01-14T07:30:57.310Z,99.90
2019-01-14T07:33:03.126Z,99.90
2019-01-14T07:35:09.599Z,99.90
2019-01-14T07:37:15.271Z,99.90
2019-01-14T07:39:22.665Z,99.90
2019-01-14T07:41:28.886Z,99.90
2019-01-14T07:43:34.553Z,99.90
2019-01-14T07:45:40.100Z,99.90
2019-01-14T07:47:47.589Z,99.90
2019-01-14T07:49:53.177Z,99.90
2019-01-14T07:51:59.099Z,99.90
2019-01-14T07:54:05.083Z,99.90
2019-01-14T07:56:13.451Z,99.90
2019-01-14T07:58:19.473Z,99.90
2019-01-14T08:00:26.601Z,99.90
2019-01-14T08:04:43.621Z,99.90
2019-01-14T08:06:49.410Z,99.90
2019-01-14T08:08:55.476Z,99.90
2019-01-14T08:11:01.821Z,99.90
2019-01-14T08:13:08.701Z,99.90
2019-01-14T08:19:47.043Z,99.90
2019-01-14T08:21:54.526Z,99.90
2019-01-14T08:24:00.033Z,99.90
2019-01-14T08:26:06.275Z,99.90
2019-01-14T08:28:12.296Z,99.90
2019-01-14T08:30:22.935Z,99.90
2019-01-14T08:32:29.120Z,99.90
2019-01-14T08:34:35.283Z,99.90
2019-01-14T08:36:41.511Z,99.90
2019-01-14T08:38:47.242Z,99.90
2019-01-14T08:40:55.607Z,99.90
2019-01-14T08:43:01.462Z,99.90
2019-01-14T08:45:08.182Z,99.90
2019-01-14T08:47:16.114Z,99.90
2019-01-14T08:49:22.804Z,99.90
2019-01-14T08:51:28.654Z,99.90
2019-01-14T08:53:35.135Z,86.40
2019-01-14T09:02:34.365Z,99.90
2019-01-14T09:04:40.107Z,91.30
2019-01-14T09:06:48.576Z,99.70
2019-01-14T09:08:54.163Z,98.00
2019-01-14T09:10:59.808Z,97.30
2019-01-14T09:13:05.642Z,99.90
2019-01-14T09:17:22.547Z,55.50
2019-01-14T09:19:31.469Z,54.40
2019-01-14T09:21:37.431Z,56.30
2019-01-14T09:23:42.916Z,57.70
2019-01-14T09:26:00.598Z,51.10
2019-01-14T09:28:06.648Z,53.00
2019-01-14T09:30:21.044Z,49.40
2019-01-14T09:32:28.066Z,58.50
2019-01-14T09:34:33.541Z,49.60
2019-01-14T09:36:39.103Z,56.20
2019-01-14T09:38:45.029Z,45.50
2019-01-14T09:40:52.969Z,42.00
2019-01-14T09:43:01.711Z,39.70
2019-01-14T09:45:13.399Z,39.90
2019-01-14T09:47:19.539Z,40.60
2019-01-14T09:49:31.584Z,40.10
2019-01-14T09:51:39.648Z,38.40
2019-01-14T09:54:06.676Z,35.70
2019-01-14T09:56:16.164Z,36.00
2019-01-14T09:58:22.459Z,34.30
2019-01-14T10:00:28.528Z,32.20
2019-01-14T10:02:45.975Z,32.40
2019-01-14T10:04:51.721Z,29.70
2019-01-14T10:06:57.531Z,30.50
2019-01-14T10:09:04.719Z,28.60
2019-01-14T10:11:10.532Z,29.40
2019-01-14T10:13:20.194Z,29.70
2019-01-14T10:15:27.893Z,29.80
2019-01-14T10:17:33.723Z,29.40
2019-01-14T10:22:07.374Z,28.50
2019-01-14T10:24:13.084Z,28.20
2019-01-14T10:26:18.704Z,29.10
2019-01-14T10:28:24.129Z,27.30
2019-01-14T10:30:39.642Z,27.90
2019-01-14T10:32:47.476Z,27.40
2019-01-14T10:34:52.794Z,28.00
2019-01-14T10:36:58.235Z,27.70
2019-01-14T10:39:05.396Z,27.00
2019-01-14T10:41:11.458Z,26.60
2019-01-14T10:43:17.719Z,29.00
2019-01-14T10:45:24.383Z,28.00
2019-01-14T10:47:32.018Z,29.30
2019-01-14T10:49:38.111Z,28.60
2019-01-14T10:51:43.870Z,29.40
2019-01-14T10:53:49.767Z,27.70
2019-01-14T10:55:55.999Z,28.20
2019-01-14T10:58:01.528Z,27.30
2019-01-14T11:00:22.583Z,24.90
2019-01-14T11:02:28.373Z,26.50
2019-01-14T11:04:33.952Z,27.90
2019-01-14T11:06:40.471Z,27.70
2019-01-14T11:08:45.899Z,29.10
2019-01-14T11:10:52.117Z,28.10
2019-01-14T11:17:39.492Z,29.60
2019-01-14T11:19:46.731Z,30.10
2019-01-14T11:21:54.103Z,31.20
2019-01-14T11:24:00.019Z,31.50
2019-01-14T11:26:11.286Z,32.00
2019-01-14T11:28:17.533Z,32.00
2019-01-14T11:30:29.718Z,32.60
2019-01-14T11:32:37.687Z,31.70
2019-01-14T11:34:46.762Z,32.60
2019-01-14T11:36:52.468Z,32.20
2019-01-14T11:39:04.825Z,34.20
2019-01-14T11:41:05.339Z,33.20
2019-01-14T11:43:11.239Z,34.30
2019-01-14T11:45:16.949Z,35.10
2019-01-14T11:47:23.615Z,35.60
2019-01-14T11:53:58.795Z,34.70
2019-01-14T11:56:04.735Z,37.20
2019-01-14T11:58:10.442Z,36.50
2019-01-14T12:00:19.056Z,36.40
2019-01-14T12:02:27.842Z,36.20
2019-01-14T12:04:35.944Z,36.80
2019-01-14T12:06:41.600Z,36.30
2019-01-14T12:08:53.398Z,36.00
2019-01-14T12:15:23.857Z,36.50
2019-01-14T12:17:32.061Z,36.20
2019-01-14T12:19:39.203Z,36.70
2019-01-14T12:21:44.855Z,36.20
2019-01-14T12:23:56.674Z,35.70
2019-01-14T12:26:02.817Z,37.10
2019-01-14T12:28:08.546Z,37.30
2019-01-14T12:30:42.821Z,37.20
2019-01-14T12:32:48.700Z,37.60
2019-01-14T12:34:54.451Z,37.10
2019-01-14T12:37:00.318Z,36.60
2019-01-14T12:39:08.975Z,37.00
2019-01-14T12:41:22.022Z,38.10
2019-01-14T12:43:30.346Z,38.10
2019-01-14T12:45:36.058Z,39.80
2019-01-14T12:47:41.659Z,38.50
2019-01-14T12:49:47.326Z,39.40
2019-01-14T12:51:53.415Z,37.80
2019-01-14T12:54:00.696Z,36.90
2019-01-14T12:56:08.412Z,37.10
2019-01-14T12:58:14.482Z,36.50
2019-01-14T13:00:24.966Z,36.20
2019-01-14T13:02:30.723Z,35.50
2019-01-14T13:15:14.798Z,39.70
2019-01-14T13:17:21.316Z,40.00
2019-01-14T13:19:27.369Z,40.00
2019-01-14T13:21:36.444Z,40.40
2019-01-14T13:23:42.498Z,40.90
2019-01-14T13:25:49.827Z,41.00
2019-01-14T13:27:55.599Z,41.50
2019-01-14T13:30:18.637Z,41.60
2019-01-14T13:32:25.475Z,41.80
2019-01-14T13:34:32.137Z,41.90
2019-01-14T13:36:37.875Z,42.50
2019-01-14T13:38:43.989Z,42.50
2019-01-14T13:40:49.545Z,42.50
2019-01-14T13:42:55.683Z,42.50
2019-01-14T13:45:01.510Z,42.00
2019-01-14T13:47:09.206Z,42.10
2019-01-14T13:49:15.497Z,41.90
2019-01-14T13:51:23.491Z,42.50
2019-01-14T13:53:29.989Z,42.50
2019-01-14T13:55:37.522Z,41.50
2019-01-14T13:57:45.540Z,40.90
2019-01-14T13:59:52.540Z,40.40
2019-01-14T14:02:00.166Z,40.00
2019-01-14T14:04:06.229Z,39.90
2019-01-14T14:06:14.296Z,40.90
2019-01-14T14:08:20.535Z,41.40
2019-01-14T14:10:30.762Z,40.10
2019-01-14T14:12:37.366Z,39.80
2019-01-14T14:14:44.650Z,39.30
2019-01-14T14:16:50.327Z,39.20
2019-01-14T14:18:56.863Z,38.20
2019-01-14T14:21:02.702Z,38.50
2019-01-14T14:23:08.491Z,39.60
2019-01-14T14:25:14.154Z,39.50
2019-01-14T14:27:19.735Z,39.00
2019-01-14T14:29:25.483Z,40.00
2019-01-14T14:31:32.064Z,40.10
2019-01-14T14:35:46.251Z,40.60
2019-01-14T14:38:00.598Z,40.30
2019-01-14T14:40:00.985Z,40.00
2019-01-14T14:42:11.055Z,40.70
2019-01-14T14:44:16.663Z,41.30
2019-01-14T14:46:24.679Z,41.20
2019-01-14T14:48:37.162Z,42.00
2019-01-14T14:50:43.198Z,42.00
2019-01-14T14:52:48.969Z,42.30
2019-01-14T14:55:00.198Z,42.30
2019-01-14T14:57:05.962Z,43.00
2019-01-14T14:59:12.018Z,42.40
2019-01-14T15:01:17.462Z,42.60
2019-01-14T15:03:23.046Z,43.30
2019-01-14T15:05:28.778Z,43.60
2019-01-14T15:07:36.666Z,43.90
2019-01-14T15:09:42.472Z,42.70
2019-01-14T15:11:48.406Z,43.30
2019-01-14T15:13:57.116Z,43.20
2019-01-14T15:16:02.954Z,43.20
2019-01-14T15:18:08.770Z,44.10
2019-01-14T15:20:17.679Z,44.70
2019-01-14T15:24:44.451Z,50.00
2019-01-14T15:26:55.891Z,59.30
2019-01-14T15:29:01.475Z,66.30
2019-01-14T15:31:07.263Z,74.70
2019-01-14T15:33:14.431Z,96.10
2019-01-14T15:35:20.249Z,99.90
2019-01-14T15:37:26.306Z,98.20
2019-01-14T15:41:43.687Z,99.90
2019-01-14T15:43:49.307Z,99.90
2019-01-14T15:50:27.823Z,99.90
2019-01-14T15:52:33.395Z,99.90
2019-01-14T15:54:39.156Z,99.90
2019-01-14T15:56:44.715Z,99.90
2019-01-14T15:58:50.333Z,99.90
2019-01-14T16:00:56.046Z,99.90
2019-01-14T16:03:01.659Z,99.90
2019-01-14T16:05:10.644Z,99.90
2019-01-14T16:07:16.363Z,99.90
2019-01-14T16:09:23.283Z,99.90
2019-01-14T16:11:29.042Z,99.90
2019-01-14T16:13:35.121Z,99.90
2019-01-14T16:15:40.787Z,99.90
2019-01-14T16:17:47.533Z,99.90
2019-01-14T16:19:53.050Z,99.90
2019-01-14T16:21:59.754Z,99.90
2019-01-14T16:24:06.284Z,99.90
2019-01-14T16:26:13.600Z,99.90
2019-01-14T16:28:19.273Z,99.90
2019-01-14T16:30:29.551Z,99.90
2019-01-14T16:32:35.886Z,99.90
2019-01-14T16:34:41.670Z,99.90
2019-01-14T16:36:49.457Z,99.90
2019-01-14T16:38:55.123Z,99.90
2019-01-14T16:41:02.559Z,99.90
2019-01-14T16:43:10.287Z,99.90
2019-01-14T16:45:21.558Z,99.90
2019-01-14T16:47:27.559Z,99.90
2019-01-14T16:49:33.262Z,99.90
2019-01-14T16:51:42.477Z,99.90
2019-01-14T16:53:48.585Z,99.90
2019-01-14T16:55:57.598Z,99.90
2019-01-14T16:58:06.816Z,99.90
2019-01-14T17:00:15.691Z,99.90
2019-01-14T17:02:21.369Z,99.90
2019-01-14T17:04:26.987Z,99.90
2019-01-14T17:06:32.973Z,99.90
2019-01-14T17:08:39.255Z,99.90
2019-01-14T17:10:46.336Z,99.90
2019-01-14T17:12:55.732Z,99.90
2019-01-14T17:15:02.195Z,99.90
2019-01-14T17:17:07.756Z,99.90
2019-01-14T17:19:15.276Z,99.90
2019-01-14T17:21:26.992Z,99.90
2019-01-14T17:23:32.881Z,99.90
2019-01-14T17:25:38.979Z,99.90
2019-01-14T17:27:45.316Z,99.90
2019-01-14T17:29:51.394Z,99.90
2019-01-14T17:31:56.961Z,99.90
2019-01-14T17:34:03.616Z,99.90
2019-01-14T17:36:09.422Z,99.90
2019-01-14T17:38:15.827Z,99.90
2019-01-14T17:40:21.601Z,99.90
2019-01-14T17:42:29.816Z,99.90
2019-01-14T17:44:35.714Z,99.90
2019-01-14T17:46:44.243Z,99.90
2019-01-14T17:48:52.578Z,99.90
2019-01-14T17:50:58.580Z,99.90
2019-01-14T17:53:04.820Z,99.90
2019-01-14T17:55:11.025Z,99.90
2019-01-14T17:57:17.044Z,99.90
2019-01-14T17:59:25.034Z,99.90
2019-01-14T18:01:32.161Z,99.90
2019-01-14T18:03:38.331Z,99.90
2019-01-14T18:05:52.214Z,99.90
2019-01-14T18:07:59.716Z,99.90
2019-01-14T18:10:06.989Z,99.90
2019-01-14T18:12:14.444Z,99.90
2019-01-14T18:14:20.444Z,99.90
2019-01-14T18:16:26.278Z,99.90
2019-01-14T18:18:31.975Z,99.90
2019-01-14T18:20:39.652Z,99.90
2019-01-14T18:22:47.789Z,99.90
2019-01-14T18:24:55.613Z,99.90
2019-01-14T18:27:01.113Z,99.90
2019-01-14T18:29:06.541Z,99.90
2019-01-14T18:31:12.238Z,99.90
2019-01-14T18:33:18.837Z,99.90
2019-01-14T18:35:25.447Z,99.90
2019-01-14T18:37:32.865Z,99.90
2019-01-14T18:39:38.728Z,99.90
2019-01-14T18:41:44.244Z,99.90
2019-01-14T18:43:50.135Z,99.90
2019-01-14T18:45:57.583Z,99.90
2019-01-14T18:48:03.746Z,99.90
2019-01-14T18:50:13.509Z,99.90
2019-01-14T18:52:19.304Z,99.90
2019-01-14T18:54:24.859Z,99.90
2019-01-14T18:56:36.175Z,99.90
2019-01-14T18:58:41.615Z,99.90
2019-01-14T19:00:47.513Z,99.90
2019-01-14T19:02:53.295Z,99.40
2019-01-14T19:04:59.191Z,97.40
2019-01-14T19:07:04.818Z,88.20
2019-01-14T19:09:10.970Z,60.70
2019-01-14T19:11:17.050Z,57.10
2019-01-14T19:13:22.819Z,58.50
2019-01-14T19:15:29.561Z,52.80
2019-01-14T19:17:35.354Z,53.40
2019-01-14T19:19:40.807Z,51.80
2019-01-14T19:21:48.860Z,56.20
2019-01-14T19:23:56.305Z,50.40
2019-01-14T19:26:02.286Z,51.80
2019-01-14T19:28:10.017Z,48.20
2019-01-14T19:30:17.514Z,47.00
2019-01-14T19:32:23.384Z,49.00
2019-01-14T19:34:35.668Z,51.10
2019-01-14T19:36:41.451Z,52.30
2019-01-14T19:38:47.010Z,53.80
2019-01-14T19:41:01.565Z,63.70
2019-01-14T19:43:05.249Z,87.30
2019-01-14T19:45:11.408Z,70.70
2019-01-14T19:47:20.208Z,81.60
2019-01-14T19:49:26.596Z,83.80
2019-01-14T19:51:33.654Z,97.70
2019-01-14T19:53:39.400Z,99.90
2019-01-14T19:55:50.953Z,99.90
2019-01-14T19:57:57.617Z,99.90
2019-01-14T20:00:05.498Z,99.90
2019-01-14T20:02:17.586Z,99.90
2019-01-14T20:04:24.959Z,99.90
2019-01-14T20:06:33.067Z,99.90
2019-01-14T20:08:39.527Z,99.90
2019-01-14T20:10:48.023Z,99.90
2019-01-14T20:12:59.541Z,99.90
2019-01-14T20:15:06.961Z,99.90
2019-01-14T20:17:14.443Z,99.90
2019-01-14T20:19:20.527Z,99.90
2019-01-14T20:21:26.976Z,99.90
2019-01-14T20:23:35.366Z,99.90
2019-01-14T20:25:42.317Z,99.90
2019-01-14T20:27:48.372Z,99.90
2019-01-14T20:29:55.677Z,99.90
2019-01-14T20:32:08.855Z,99.90
2019-01-14T20:34:14.987Z,99.90
2019-01-14T20:36:21.372Z,99.90
2019-01-14T20:38:26.806Z,99.90
2019-01-14T20:40:35.771Z,99.90
2019-01-14T20:42:41.824Z,99.90
2019-01-14T20:44:49.240Z,99.90
2019-01-14T20:46:55.117Z,99.90
2019-01-14T20:49:01.630Z,99.90
2019-01-14T20:51:15.776Z,99.90
2019-01-14T20:53:21.654Z,99.90
2019-01-14T20:55:32.030Z,99.90
2019-01-14T20:57:37.633Z,99.90
2019-01-14T20:59:43.195Z,99.90
2019-01-14T21:01:49.358Z,99.90
2019-01-14T21:03:57.321Z,99.90
2019-01-14T21:06:03.134Z,99.90
2019-01-14T21:08:10.187Z,99.90
2019-01-14T21:10:17.627Z,99.90
2019-01-14T21:12:23.471Z,99.90
2019-01-14T21:14:29.201Z,99.90
2019-01-14T21:16:35.376Z,99.90
2019-01-14T21:18:41.733Z,99.90
2019-01-14T21:20:49.341Z,99.90
2019-01-14T21:22:56.862Z,99.90
2019-01-14T21:25:03.033Z,99.90
2019-01-14T21:27:08.705Z,99.90
2019-01-14T21:29:14.538Z,99.90
2019-01-14T21:31:20.840Z,99.90
2019-01-14T21:33:29.384Z,99.90
2019-01-14T21:35:39.556Z,99.90
2019-01-14T21:37:59.245Z,99.90
2019-01-14T21:40:10.821Z,99.90
2019-01-14T21:42:24.652Z,99.90
2019-01-14T21:44:30.658Z,99.90
2019-01-14T21:46:36.599Z,99.90
2019-01-14T21:48:45.469Z,99.90
2019-01-14T21:50:51.152Z,99.90
2019-01-14T21:52:56.989Z,99.90
2019-01-14T21:55:05.245Z,99.90
2019-01-14T21:57:11.383Z,99.90
2019-01-14T21:59:18.959Z,99.90
2019-01-14T22:01:26.573Z,99.90
2019-01-14T22:03:32.583Z,99.90
2019-01-14T22:05:41.351Z,99.90
2019-01-14T22:07:50.048Z,99.90
2019-01-14T22:09:58.069Z,99.90
2019-01-14T22:12:06.736Z,99.90
2019-01-14T22:14:14.784Z,99.90
2019-01-14T22:16:20.962Z,99.90
2019-01-14T22:18:27.787Z,99.90
2019-01-14T22:20:41.184Z,99.90
2019-01-14T22:22:49.945Z,99.90
2019-01-14T22:25:00.014Z,99.90
2019-01-14T22:27:06.126Z,99.90
2019-01-14T22:29:13.930Z,99.90
2019-01-14T22:31:25.021Z,99.90
2019-01-14T22:33:31.422Z,99.90
2019-01-14T22:35:38.382Z,99.90
2019-01-14T22:37:44.069Z,99.90
2019-01-14T22:39:53.372Z,99.90
2019-01-14T22:41:59.796Z,99.90
2019-01-14T22:44:06.420Z,99.90
2019-01-14T22:46:14.443Z,99.90
2019-01-14T22:48:21.660Z,99.90
2019-01-14T22:50:33.620Z,99.90
2019-01-14T22:52:46.171Z,99.90
2019-01-14T22:54:52.277Z,99.90
2019-01-14T22:56:59.027Z,99.90
2019-01-14T22:59:10.943Z,99.90
2019-01-14T23:01:45.845Z,99.90
2019-01-14T23:03:53.742Z,99.90
2019-01-14T23:06:00.047Z,99.90
2019-01-14T23:08:06.019Z,99.90
2019-01-14T23:10:12.024Z,99.90
2019-01-14T23:12:18.391Z,99.90
2019-01-14T23:14:24.401Z,99.90
2019-01-14T23:16:30.893Z,99.90
2019-01-14T23:18:38.617Z,99.90
2019-01-14T23:20:44.496Z,99.90
2019-01-14T23:22:51.059Z,99.90
2019-01-14T23:25:00.127Z,99.90
2019-01-14T23:27:05.842Z,99.90
2019-01-14T23:29:11.666Z,99.90
2019-01-14T23:31:17.500Z,99.90
2019-01-14T23:33:23.058Z,99.90
2019-01-14T23:35:30.687Z,99.90
2019-01-14T23:37:36.781Z,99.90
2019-01-14T23:39:42.290Z,99.90
2019-01-14T23:41:48.911Z,99.90
2019-01-14T23:43:54.498Z,99.90
2019-01-14T23:46:00.204Z,99.90
2019-01-14T23:48:06.487Z,99.90
2019-01-14T23:50:12.543Z,99.90
2019-01-14T23:52:18.331Z,99.90
2019-01-14T23:54:25.138Z,99.90
2019-01-14T23:56:30.733Z,99.90
2019-01-14T23:58:39.943Z,99.90
